Strona główna
METAR-TAF:

METAR-TAF

Lotnisko :

Melun, Francja

Szerokość geograficzna: 48-37N, Długość geograficzna: 002-41E, wysokość: 95 m

Aktualna obserwacja pogody

Raport powstał 15 minut temu, godzina 09:30 UTC
Wiatr 2 kt od południowo-południowy wschód
Temperatura 4°C
Wilgotność 100%
Ciśnienie 1017 hPa
Widzialność: 4400 m
zamglenie

METAR: LFPM 260930Z AUTO 15002KT 4400 BR ////// 04/04 Q1017

czas: 10:45 (09:45 UTC)


TAF: brakujący

Obserwacja i prognoza pogody dla ponad 4000 lotnisk (raport METAR i TAF).

Dostępne stacje oznaczono żółtymi i czerwonymi punktami na mapie.

Najedź kursorem aby zobaczyć nazwę stacji.

Kliknij aby zobaczyć obserwacje i prognozy pogody.

Aby zmienić mapę: kliknij na zielony przycisk z czarnym krzyżykiem, aby powiększyć; na zielony przycisk z myślnikiem, aby pomniejszyć; na zielone strzałki, aby przejść do map sąsiednich.


METAR-TAF: